createdAt,value
2019-02-09T00:00:16.682Z,-2.39
2019-02-09T00:01:26.596Z,-2.39
2019-02-09T00:02:36.527Z,-2.42
2019-02-09T00:03:46.468Z,-2.36
2019-02-09T00:04:56.380Z,-2.26
2019-02-09T00:06:06.323Z,-2.26
2019-02-09T00:07:16.351Z,-2.18
2019-02-09T00:08:26.276Z,-2.07
2019-02-09T00:09:36.188Z,-2
2019-02-09T00:10:46.097Z,-1.99
2019-02-09T00:11:56.016Z,-2.02
2019-02-09T00:13:05.978Z,-2.04
2019-02-09T00:14:15.889Z,-2.15
2019-02-09T00:15:25.819Z,-2
2019-02-09T00:16:35.788Z,-2.08
2019-02-09T00:17:45.705Z,-2.05
2019-02-09T00:18:55.718Z,-2.2
2019-02-09T00:20:05.631Z,-2.14
2019-02-09T00:21:15.546Z,-2.07
2019-02-09T00:22:25.468Z,-2.14
2019-02-09T00:23:35.384Z,-2.18
2019-02-09T00:24:45.400Z,-2.28
2019-02-09T00:25:55.324Z,-2.17
2019-02-09T00:27:05.243Z,-2.18
2019-02-09T00:28:15.165Z,-2.26
2019-02-09T00:29:25.086Z,-2.17
2019-02-09T00:30:35.131Z,-2.23
2019-02-09T00:31:45.046Z,-2.08
2019-02-09T00:32:54.965Z,-2.2
2019-02-09T00:34:04.892Z,-2.2
2019-02-09T00:35:14.808Z,-2.26
2019-02-09T00:36:24.820Z,-2.15
2019-02-09T00:37:34.734Z,-2.23
2019-02-09T00:38:44.649Z,-2.25
2019-02-09T00:39:54.615Z,-2.39
2019-02-09T00:41:04.534Z,-2.29
2019-02-09T00:42:14.551Z,-2.37
2019-02-09T00:43:24.468Z,-2.39
2019-02-09T00:44:34.401Z,-2.28
2019-02-09T00:45:44.313Z,-2.29
2019-02-09T00:46:54.226Z,-2.17
2019-02-09T00:48:04.244Z,-2.2
2019-02-09T00:49:14.169Z,-2.13
2019-02-09T00:50:24.088Z,-2.14
2019-02-09T00:51:34.002Z,-2.17
2019-02-09T00:52:43.665Z,-2.14
2019-02-09T00:53:53.631Z,-2.17
2019-02-09T00:55:03.548Z,-2.13
2019-02-09T00:56:13.464Z,-2.08
2019-02-09T00:57:23.128Z,-2.14
2019-02-09T00:58:33.044Z,-2.11
2019-02-09T00:59:43.053Z,-2.08
2019-02-09T01:00:59.369Z,-2.13
2019-02-09T01:02:09.343Z,-2.07
2019-02-09T01:03:19.280Z,-2.13
2019-02-09T01:04:29.198Z,-2.07
2019-02-09T01:05:39.216Z,-2.08
2019-02-09T01:06:48.880Z,-2.02
2019-02-09T01:07:58.811Z,-2
2019-02-09T01:09:08.478Z,-1.92
2019-02-09T01:10:18.394Z,-1.87
2019-02-09T01:11:28.408Z,-1.82
2019-02-09T01:12:38.327Z,-1.81
2019-02-09T01:13:48.244Z,-1.74
2019-02-09T01:14:58.160Z,-1.75
2019-02-09T01:16:08.076Z,-1.76
2019-02-09T01:17:18.145Z,-1.64
2019-02-09T01:18:28.066Z,-1.6
2019-02-09T01:19:38.022Z,-1.54
2019-02-09T01:20:47.939Z,-1.45
2019-02-09T01:21:57.857Z,-1.39
2019-02-09T01:23:07.891Z,-1.43
2019-02-09T01:24:17.806Z,-1.38
2019-02-09T01:25:27.722Z,-1.35
2019-02-09T01:26:37.644Z,-1.38
2019-02-09T01:27:47.561Z,-1.29
2019-02-09T01:28:57.635Z,-1.3
2019-02-09T01:30:07.838Z,-1.33
2019-02-09T01:31:17.756Z,-1.42
2019-02-09T01:32:27.674Z,-1.43
2019-02-09T01:33:37.592Z,-1.43
2019-02-09T01:34:47.510Z,-1.5
2019-02-09T01:35:57.425Z,-1.48
2019-02-09T01:37:07.341Z,-1.6
2019-02-09T01:38:17.262Z,-1.6
2019-02-09T01:39:27.183Z,-1.58
2019-02-09T01:40:37.102Z,-1.68
2019-02-09T01:41:47.021Z,-1.53
2019-02-09T01:42:56.952Z,-1.43
2019-02-09T01:44:06.877Z,-1.4
2019-02-09T01:45:16.792Z,-1.43
2019-02-09T01:46:26.705Z,-1.45
2019-02-09T01:47:36.619Z,-1.38
2019-02-09T01:48:46.538Z,-1.38
2019-02-09T01:49:56.455Z,-1.45
2019-02-09T01:51:06.430Z,-1.42
2019-02-09T01:52:16.444Z,-1.45
2019-02-09T01:53:26.391Z,-1.46
2019-02-09T01:54:36.311Z,-1.4
2019-02-09T01:55:46.230Z,-1.4
2019-02-09T01:56:56.146Z,-1.53
2019-02-09T01:58:05.923Z,-1.53
2019-02-09T01:59:15.839Z,-1.6
2019-02-09T02:00:25.766Z,-1.57
2019-02-09T02:01:35.686Z,-1.61
2019-02-09T02:02:45.604Z,-1.68
2019-02-09T02:03:55.620Z,-1.66
2019-02-09T02:05:05.537Z,-1.61
2019-02-09T02:06:15.454Z,-1.61
2019-02-09T02:07:25.372Z,-1.72
2019-02-09T02:08:35.288Z,-1.72
2019-02-09T02:09:45.221Z,-1.71
2019-02-09T02:10:55.138Z,-1.74
2019-02-09T02:12:05.069Z,-1.74
2019-02-09T02:13:14.988Z,-1.71
2019-02-09T02:14:24.650Z,-1.64
2019-02-09T02:15:34.686Z,-1.6
2019-02-09T02:16:44.601Z,-1.64
2019-02-09T02:17:54.525Z,-1.68
2019-02-09T02:19:04.438Z,-1.61
2019-02-09T02:20:14.354Z,-1.66
2019-02-09T02:21:24.369Z,-1.6
2019-02-09T02:22:34.281Z,-1.63
2019-02-09T02:23:44.192Z,-1.58
2019-02-09T02:24:54.105Z,-1.57
2019-02-09T02:26:04.024Z,-1.57
2019-02-09T02:27:14.047Z,-1.5
2019-02-09T02:28:23.962Z,-1.39
2019-02-09T02:29:33.874Z,-1.46
2019-02-09T02:30:43.966Z,-1.42
2019-02-09T02:31:53.911Z,-1.42
2019-02-09T02:33:03.956Z,-1.45
2019-02-09T02:34:13.894Z,-1.35
2019-02-09T02:35:23.814Z,-1.32
2019-02-09T02:36:33.727Z,-1.3
2019-02-09T02:37:43.657Z,-1.29
2019-02-09T02:38:53.591Z,-1.33
2019-02-09T02:40:03.508Z,-1.29
2019-02-09T02:41:13.441Z,-1.25
2019-02-09T02:42:23.360Z,-1.25
2019-02-09T02:43:33.291Z,-1.3
2019-02-09T02:44:43.305Z,-1.18
2019-02-09T02:45:53.219Z,-1.17
2019-02-09T02:47:03.137Z,-1.11
2019-02-09T02:48:13.071Z,-1.12
2019-02-09T02:49:23.000Z,-1.09
2019-02-09T02:50:32.984Z,-1.14
2019-02-09T02:51:42.908Z,-1.01
2019-02-09T02:52:52.837Z,-1.04
2019-02-09T02:54:02.791Z,-0.99
2019-02-09T02:55:12.723Z,-1.04
2019-02-09T02:56:22.658Z,-1
2019-02-09T02:57:32.579Z,-1.01
2019-02-09T02:58:42.519Z,-0.94
2019-02-09T02:59:52.434Z,-0.93
2019-02-09T03:01:02.113Z,-0.89
2019-02-09T03:02:12.086Z,-0.82
2019-02-09T03:03:22.009Z,-0.89
2019-02-09T03:04:31.953Z,-0.89
2019-02-09T03:05:41.619Z,-0.75
2019-02-09T03:06:52.760Z,-0.77
2019-02-09T03:08:02.708Z,-0.75
2019-02-09T03:09:12.644Z,-0.72
2019-02-09T03:10:22.575Z,-0.74
2019-02-09T03:11:32.498Z,-0.72
2019-02-09T03:12:42.427Z,-0.74
2019-02-09T03:13:52.096Z,-0.77
2019-02-09T03:15:02.059Z,-0.74
2019-02-09T03:16:12.001Z,-0.67
2019-02-09T03:17:21.915Z,-0.7
2019-02-09T03:18:31.840Z,-0.7
2019-02-09T03:19:41.759Z,-0.69
2019-02-09T03:20:51.679Z,-0.72
2019-02-09T03:22:01.592Z,-0.69
2019-02-09T03:23:11.509Z,-0.69
2019-02-09T03:24:21.464Z,-0.57
2019-02-09T03:25:31.446Z,-0.62
2019-02-09T03:26:41.369Z,-0.56
2019-02-09T03:27:51.310Z,-0.6
2019-02-09T03:29:01.021Z,-0.6
2019-02-09T03:30:10.962Z,-0.6
2019-02-09T03:31:20.911Z,-0.6
2019-02-09T03:32:30.863Z,-0.66
2019-02-09T03:33:40.825Z,-0.62
2019-02-09T03:34:50.759Z,-0.62
2019-02-09T03:36:00.676Z,-0.6
2019-02-09T03:37:10.645Z,-0.67
2019-02-09T03:38:20.565Z,-0.63
2019-02-09T03:39:30.494Z,-0.63
2019-02-09T03:40:40.424Z,-0.51
2019-02-09T03:41:50.354Z,-0.56
2019-02-09T03:43:00.399Z,-0.51
2019-02-09T03:44:10.324Z,-0.54
2019-02-09T03:45:20.268Z,-0.51
2019-02-09T03:46:30.183Z,-0.54
2019-02-09T03:47:40.101Z,-0.57
2019-02-09T03:48:50.130Z,-0.53
2019-02-09T03:50:01.609Z,-0.63
2019-02-09T03:51:11.539Z,-0.54
2019-02-09T03:52:21.462Z,-0.49
2019-02-09T03:53:31.419Z,-0.62
2019-02-09T03:54:41.449Z,-0.62
2019-02-09T03:55:51.395Z,-0.53
2019-02-09T03:57:01.313Z,-0.56
2019-02-09T03:58:11.235Z,-0.49
2019-02-09T03:59:21.153Z,-0.51
2019-02-09T04:00:31.207Z,-0.48
2019-02-09T04:01:41.135Z,-0.53
2019-02-09T04:02:51.089Z,-0.54
2019-02-09T04:04:01.018Z,-0.57
2019-02-09T04:05:10.941Z,-0.54
2019-02-09T04:06:20.913Z,-0.49
2019-02-09T04:07:30.859Z,-0.51
2019-02-09T04:08:40.801Z,-0.49
2019-02-09T04:09:50.726Z,-0.51
2019-02-09T04:11:00.651Z,-0.53
2019-02-09T04:12:10.584Z,-0.49
2019-02-09T04:13:20.508Z,-0.46
2019-02-09T04:14:30.444Z,-0.49
2019-02-09T04:15:40.382Z,-0.51
2019-02-09T04:16:50.311Z,-0.45
2019-02-09T04:18:00.341Z,-0.53
2019-02-09T04:19:10.256Z,-0.53
2019-02-09T04:20:20.175Z,-0.51
2019-02-09T04:21:30.089Z,-0.53
2019-02-09T04:22:40.018Z,-0.49
2019-02-09T04:23:49.942Z,-0.46
2019-02-09T04:24:59.858Z,-0.42
2019-02-09T04:26:09.793Z,-0.39
2019-02-09T04:27:19.713Z,-0.36
2019-02-09T04:28:29.629Z,-0.36
2019-02-09T04:29:39.817Z,-0.44
2019-02-09T04:30:49.739Z,-0.36
2019-02-09T04:31:59.678Z,-0.41
2019-02-09T04:33:09.602Z,-0.41
2019-02-09T04:34:19.523Z,-0.38
2019-02-09T04:35:29.439Z,-0.35
2019-02-09T04:36:39.356Z,-0.36
2019-02-09T04:37:49.279Z,-0.28
2019-02-09T04:38:59.207Z,-0.31
2019-02-09T04:40:09.129Z,-0.27
2019-02-09T04:41:19.057Z,-0.28
2019-02-09T04:42:28.982Z,-0.3
2019-02-09T04:43:38.914Z,-0.17
2019-02-09T04:44:48.850Z,-0.18
2019-02-09T04:45:58.561Z,-0.2
2019-02-09T04:47:08.486Z,-0.27
2019-02-09T04:48:18.409Z,-0.18
2019-02-09T04:49:28.329Z,-0.13
2019-02-09T04:50:38.249Z,-0.13
2019-02-09T04:51:48.206Z,-0.12
2019-02-09T04:52:58.128Z,-0.13
2019-02-09T04:54:08.053Z,-0.12
2019-02-09T04:55:17.986Z,-0.06
2019-02-09T04:56:27.937Z,-0.03
2019-02-09T04:57:37.865Z,-0.09
2019-02-09T04:58:47.779Z,-0.17
2019-02-09T04:59:57.703Z,-0.13
2019-02-09T05:01:16.213Z,-0.2
2019-02-09T05:02:26.133Z,-0.2
2019-02-09T05:03:36.063Z,-0.18
2019-02-09T05:04:46.107Z,-0.2
2019-02-09T05:05:56.048Z,-0.18
2019-02-09T05:07:05.966Z,-0.24
2019-02-09T05:08:15.640Z,-0.21
2019-02-09T05:09:25.569Z,-0.17
2019-02-09T05:10:35.583Z,-0.18
2019-02-09T05:11:45.520Z,-0.17
2019-02-09T05:12:55.199Z,-0.18
2019-02-09T05:14:05.121Z,-0.12
2019-02-09T05:15:15.050Z,0.05
2019-02-09T05:16:25.036Z,0.02
2019-02-09T05:17:34.956Z,0.06
2019-02-09T05:18:44.884Z,-0.09
2019-02-09T05:19:54.804Z,-0.1
2019-02-09T05:21:04.741Z,-0.18
2019-02-09T05:22:14.761Z,-0.2
2019-02-09T05:23:24.690Z,-0.31
2019-02-09T05:24:34.638Z,-0.23
2019-02-09T05:25:44.578Z,-0.33
2019-02-09T05:26:54.494Z,-0.3
2019-02-09T05:28:04.445Z,-0.3
2019-02-09T05:29:14.368Z,-0.24
2019-02-09T05:30:24.313Z,-0.27
2019-02-09T05:31:34.249Z,-0.3
2019-02-09T05:32:44.175Z,-0.33
2019-02-09T05:33:54.251Z,-0.31
2019-02-09T05:35:04.171Z,-0.26
2019-02-09T05:36:14.090Z,-0.27
2019-02-09T05:37:24.034Z,-0.31
2019-02-09T05:38:33.978Z,-0.2
2019-02-09T05:39:44.009Z,-0.31
2019-02-09T05:40:53.980Z,-0.26
2019-02-09T05:42:03.911Z,-0.27
2019-02-09T05:43:13.842Z,-0.28
2019-02-09T05:44:23.512Z,-0.24
2019-02-09T05:45:33.534Z,-0.31
2019-02-09T05:46:43.462Z,-0.3
2019-02-09T05:47:53.394Z,-0.28
2019-02-09T05:49:03.324Z,-0.31
2019-02-09T05:50:13.272Z,-0.33
2019-02-09T05:51:23.313Z,-0.2
2019-02-09T05:52:33.236Z,-0.2
2019-02-09T05:53:43.152Z,-0.18
2019-02-09T05:54:53.080Z,-0.15
2019-02-09T05:56:03.022Z,-0.18
2019-02-09T05:57:12.986Z,-0.21
2019-02-09T05:58:22.908Z,-0.15
2019-02-09T05:59:32.844Z,-0.12
2019-02-09T06:00:42.772Z,-0.18
2019-02-09T06:01:52.442Z,-0.17
2019-02-09T06:03:02.462Z,-0.17
2019-02-09T06:04:12.428Z,-0.13
2019-02-09T06:05:22.386Z,-0.12
2019-02-09T06:06:32.316Z,-0.13
2019-02-09T06:07:42.307Z,-0.1
2019-02-09T06:08:52.276Z,-0.06
2019-02-09T06:10:02.206Z,-0.07
2019-02-09T06:11:11.877Z,-0.02
2019-02-09T06:12:21.802Z,-0.1
2019-02-09T06:13:31.724Z,-0.06
2019-02-09T06:14:41.702Z,-0.02
2019-02-09T06:15:51.625Z,-0.15
2019-02-09T06:17:01.563Z,0.06
2019-02-09T06:18:11.495Z,0.02
2019-02-09T06:19:21.412Z,0
2019-02-09T06:20:31.349Z,0.09
2019-02-09T06:21:41.266Z,0.01
2019-02-09T06:22:51.236Z,-0.02
2019-02-09T06:24:01.187Z,0.06
2019-02-09T06:25:11.113Z,-0.02
2019-02-09T06:26:21.171Z,0.13
2019-02-09T06:27:31.083Z,0.08
2019-02-09T06:28:41.012Z,-0.02
2019-02-09T06:29:50.929Z,0.05
2019-02-09T06:31:00.597Z,0.02
2019-02-09T06:32:10.532Z,0
2019-02-09T06:33:20.466Z,-0.05
2019-02-09T06:34:30.386Z,0.12
2019-02-09T06:35:40.085Z,0.09
2019-02-09T06:36:50.014Z,0.08
2019-02-09T06:38:00.039Z,0.2
2019-02-09T06:39:09.971Z,0.3
2019-02-09T06:40:19.896Z,0.42
2019-02-09T06:41:29.859Z,0.45
2019-02-09T06:42:39.800Z,0.44
2019-02-09T06:43:49.815Z,0.47
2019-02-09T06:44:59.741Z,0.56
2019-02-09T06:46:09.673Z,0.47
2019-02-09T06:47:19.596Z,0.64
2019-02-09T06:48:29.518Z,0.58
2019-02-09T06:49:39.532Z,0.64
2019-02-09T06:50:49.456Z,0.61
2019-02-09T06:51:59.393Z,0.51
2019-02-09T06:53:09.320Z,0.47
2019-02-09T06:54:19.248Z,0.37
2019-02-09T06:55:29.163Z,0.37
2019-02-09T06:56:39.083Z,0.42
2019-02-09T06:57:49.002Z,0.4
2019-02-09T06:58:58.918Z,0.34
2019-02-09T07:00:08.859Z,0.37
2019-02-09T07:01:18.872Z,0.33
2019-02-09T07:02:28.793Z,0.33
2019-02-09T07:03:38.725Z,0.27
2019-02-09T07:04:48.393Z,0.34
2019-02-09T07:05:58.311Z,0.36
2019-02-09T07:07:08.334Z,0.42
2019-02-09T07:08:19.262Z,0.33
2019-02-09T07:09:29.176Z,0.39
2019-02-09T07:10:39.089Z,0.3
2019-02-09T07:11:49.038Z,0.37
2019-02-09T07:12:59.078Z,0.39
2019-02-09T07:14:08.995Z,0.42
2019-02-09T07:15:19.901Z,0.47
2019-02-09T07:16:29.838Z,0.52
2019-02-09T07:17:39.755Z,0.49
2019-02-09T07:18:49.739Z,0.48
2019-02-09T07:19:59.657Z,0.44
2019-02-09T07:21:09.576Z,0.47
2019-02-09T07:22:19.492Z,0.44
2019-02-09T07:23:29.411Z,0.47
2019-02-09T07:24:39.431Z,0.48
2019-02-09T07:25:49.377Z,0.51
2019-02-09T07:26:59.322Z,0.48
2019-02-09T07:28:08.992Z,0.48
2019-02-09T07:29:18.918Z,0.51
2019-02-09T07:30:29.050Z,0.48
2019-02-09T07:31:38.994Z,0.47
2019-02-09T07:32:48.914Z,0.48
2019-02-09T07:33:58.847Z,0.47
2019-02-09T07:35:08.794Z,0.49
2019-02-09T07:36:18.824Z,0.47
2019-02-09T07:37:28.499Z,0.45
2019-02-09T07:38:38.431Z,0.51
2019-02-09T07:39:48.356Z,0.49
2019-02-09T07:40:58.273Z,0.58
2019-02-09T07:42:08.309Z,0.63
2019-02-09T07:43:18.222Z,0.49
2019-02-09T07:44:28.143Z,0.52
2019-02-09T07:45:38.063Z,0.61
2019-02-09T07:46:47.980Z,0.64
2019-02-09T07:47:57.999Z,0.63
2019-02-09T07:49:07.917Z,0.58
2019-02-09T07:50:17.834Z,0.63
2019-02-09T07:51:27.756Z,0.56
2019-02-09T07:52:37.692Z,0.61
2019-02-09T07:53:47.613Z,0.61
2019-02-09T07:54:57.537Z,0.59
2019-02-09T07:56:07.473Z,0.61
2019-02-09T07:57:17.389Z,0.49
2019-02-09T07:58:27.302Z,0.51
2019-02-09T07:59:37.268Z,0.51
2019-02-09T08:00:46.934Z,0.48
2019-02-09T08:02:04.202Z,0.49
2019-02-09T08:03:14.347Z,0.47
2019-02-09T08:04:24.265Z,0.47
2019-02-09T08:05:34.187Z,0.55
2019-02-09T08:06:44.109Z,0.48
2019-02-09T08:07:54.031Z,0.48
2019-02-09T08:09:03.950Z,0.45
2019-02-09T08:10:13.869Z,0.51
2019-02-09T08:11:23.785Z,0.42
2019-02-09T08:12:33.709Z,0.45
2019-02-09T08:13:43.640Z,0.49
2019-02-09T08:14:53.564Z,0.3
2019-02-09T08:16:03.480Z,0.48
2019-02-09T08:17:13.500Z,0.44
2019-02-09T08:18:23.418Z,0.45
2019-02-09T08:19:33.360Z,0.45
2019-02-09T08:20:43.280Z,0.45
2019-02-09T08:21:53.226Z,0.45
2019-02-09T08:23:03.365Z,0.48
2019-02-09T08:24:13.323Z,0.47
2019-02-09T08:25:23.275Z,0.48
2019-02-09T08:26:33.192Z,0.48
2019-02-09T08:27:43.138Z,0.47
2019-02-09T08:28:53.168Z,0.36
2019-02-09T08:30:02.839Z,0.48
2019-02-09T08:31:12.769Z,0.48
2019-02-09T08:32:22.703Z,0.51
2019-02-09T08:33:32.632Z,0.58
2019-02-09T08:34:42.606Z,0.61
2019-02-09T08:35:52.526Z,0.59
2019-02-09T08:37:02.449Z,0.71
2019-02-09T08:38:12.380Z,0.76
2019-02-09T08:39:22.301Z,0.67
2019-02-09T08:40:32.323Z,0.68
2019-02-09T08:41:41.988Z,0.68
2019-02-09T08:42:51.905Z,0.74
2019-02-09T08:44:01.571Z,0.81
2019-02-09T08:45:11.494Z,0.81
2019-02-09T08:46:21.519Z,0.81
2019-02-09T08:47:31.440Z,0.89
2019-02-09T08:48:41.534Z,0.85
2019-02-09T08:49:51.456Z,0.88
2019-02-09T08:51:01.423Z,0.91
2019-02-09T08:52:11.089Z,0.91
2019-02-09T08:53:21.009Z,0.89
2019-02-09T08:54:30.933Z,0.91
2019-02-09T08:55:40.852Z,0.88
2019-02-09T08:56:50.771Z,0.99
2019-02-09T08:58:00.687Z,0.95
2019-02-09T08:59:10.607Z,0.94
2019-02-09T09:00:20.529Z,0.91
2019-02-09T09:01:30.451Z,0.99
2019-02-09T09:02:40.370Z,1.03
2019-02-09T09:03:50.449Z,0.96
2019-02-09T09:05:00.369Z,1.04
2019-02-09T09:06:17.289Z,1.16
2019-02-09T09:07:27.213Z,1.14
2019-02-09T09:08:37.132Z,1.1
2019-02-09T09:09:47.104Z,1.21
2019-02-09T09:10:57.025Z,1.25
2019-02-09T09:12:06.952Z,1.39
2019-02-09T09:13:16.875Z,1.49
2019-02-09T09:14:26.795Z,1.5
2019-02-09T09:15:36.812Z,1.58
2019-02-09T09:16:46.728Z,1.64
2019-02-09T09:17:56.645Z,1.66
2019-02-09T09:19:06.566Z,1.75
2019-02-09T09:20:16.487Z,1.85
2019-02-09T09:21:26.556Z,1.88
2019-02-09T09:22:36.470Z,1.92
2019-02-09T09:23:46.522Z,2
2019-02-09T09:24:56.461Z,1.95
2019-02-09T09:26:06.384Z,2.05
2019-02-09T09:27:16.312Z,2.05
2019-02-09T09:28:26.232Z,2.03
2019-02-09T09:29:36.150Z,2.04
2019-02-09T09:30:46.124Z,2.07
2019-02-09T09:31:56.043Z,2.14
2019-02-09T09:33:06.066Z,2.16
2019-02-09T09:34:16.010Z,2.22
2019-02-09T09:35:25.932Z,2.07
2019-02-09T09:36:35.855Z,2.18
2019-02-09T09:37:45.771Z,2.22
2019-02-09T09:38:55.741Z,2.34
2019-02-09T09:40:05.662Z,2.36
2019-02-09T09:41:15.580Z,2.43
2019-02-09T09:42:25.500Z,2.51
2019-02-09T09:43:36.593Z,2.33
2019-02-09T09:44:46.614Z,2.41
2019-02-09T09:45:56.536Z,2.34
2019-02-09T09:47:06.207Z,2.19
2019-02-09T09:48:16.128Z,2.07
2019-02-09T09:49:25.808Z,2.12
2019-02-09T09:50:35.829Z,2.05
2019-02-09T09:51:45.750Z,2.05
2019-02-09T09:52:55.680Z,2.03
2019-02-09T09:54:05.601Z,2.04
2019-02-09T09:55:15.522Z,2.07
2019-02-09T09:56:25.548Z,2.15
2019-02-09T09:57:35.477Z,2.08
2019-02-09T09:58:45.401Z,1.98
2019-02-09T09:59:55.353Z,1.93
2019-02-09T10:01:05.362Z,1.93
2019-02-09T10:02:15.341Z,1.95
2019-02-09T10:03:25.270Z,1.85
2019-02-09T10:04:35.189Z,1.89
2019-02-09T10:05:45.123Z,1.88
2019-02-09T10:06:55.067Z,1.88
2019-02-09T10:08:05.092Z,1.86
2019-02-09T10:09:15.015Z,1.74
2019-02-09T10:10:24.938Z,1.75
2019-02-09T10:11:34.863Z,1.75
2019-02-09T10:12:44.790Z,1.71
2019-02-09T10:13:54.816Z,1.63
2019-02-09T10:15:04.750Z,1.75
2019-02-09T10:16:14.687Z,1.67
2019-02-09T10:17:24.353Z,1.74
2019-02-09T10:18:34.294Z,1.76
2019-02-09T10:19:44.284Z,1.84
2019-02-09T10:20:54.203Z,2.04
2019-02-09T10:22:04.125Z,2.12
2019-02-09T10:23:14.044Z,2.19
2019-02-09T10:24:23.977Z,2.4
2019-02-09T10:25:33.946Z,2.52
2019-02-09T10:26:43.881Z,2.58
2019-02-09T10:27:53.804Z,2.72
2019-02-09T10:29:04.315Z,2.57
2019-02-09T10:30:14.237Z,2.58
2019-02-09T10:31:24.206Z,2.61
2019-02-09T10:32:34.144Z,2.76
2019-02-09T10:33:51.881Z,2.79
2019-02-09T10:35:01.800Z,2.7
2019-02-09T10:36:13.016Z,2.61
2019-02-09T10:37:22.940Z,2.55
2019-02-09T10:38:32.860Z,2.76
2019-02-09T10:39:42.777Z,2.77
2019-02-09T10:40:52.697Z,2.83
2019-02-09T10:42:02.635Z,2.88
2019-02-09T10:43:12.655Z,2.82
2019-02-09T10:44:22.587Z,2.72
2019-02-09T10:45:32.515Z,2.7
2019-02-09T10:46:43.876Z,2.52
2019-02-09T10:47:53.907Z,2.54
2019-02-09T10:49:03.878Z,2.54
2019-02-09T10:50:13.801Z,2.52
2019-02-09T10:51:23.735Z,2.36
2019-02-09T10:52:33.712Z,2.36
2019-02-09T10:53:43.633Z,2.5
2019-02-09T10:54:53.405Z,2.52
2019-02-09T10:56:03.339Z,2.47
2019-02-09T10:57:13.269Z,2.43
2019-02-09T10:58:23.195Z,2.39
2019-02-09T10:59:33.115Z,2.32
2019-02-09T11:00:43.088Z,2.39
2019-02-09T11:01:53.062Z,2.41
2019-02-09T11:03:02.986Z,2.37
2019-02-09T11:04:12.914Z,2.4
2019-02-09T11:05:22.870Z,2.26
2019-02-09T11:06:32.896Z,2.25
2019-02-09T11:07:42.825Z,2.26
2019-02-09T11:08:52.743Z,2.43
2019-02-09T11:10:02.666Z,2.41
2019-02-09T11:11:12.593Z,2.55
2019-02-09T11:12:22.416Z,2.41
2019-02-09T11:13:32.345Z,2.51
2019-02-09T11:14:42.294Z,2.51
2019-02-09T11:15:52.219Z,2.65
2019-02-09T11:17:02.142Z,2.54
2019-02-09T11:18:12.165Z,2.62
2019-02-09T11:19:22.086Z,2.62
2019-02-09T11:20:31.761Z,2.69
2019-02-09T11:21:41.683Z,2.64
2019-02-09T11:22:51.625Z,2.7
2019-02-09T11:24:01.594Z,2.59
2019-02-09T11:25:11.513Z,2.54
2019-02-09T11:26:21.478Z,2.59
2019-02-09T11:27:31.398Z,2.52
2019-02-09T11:28:41.317Z,2.52
2019-02-09T11:29:51.344Z,2.5
2019-02-09T11:31:01.273Z,2.52
2019-02-09T11:32:11.209Z,2.52
2019-02-09T11:33:21.140Z,2.57
2019-02-09T11:34:31.060Z,2.73
2019-02-09T11:35:41.081Z,2.87
2019-02-09T11:36:51.190Z,2.93
2019-02-09T11:38:01.151Z,3.06
2019-02-09T11:39:11.068Z,3.15
2019-02-09T11:40:20.996Z,3.13
2019-02-09T11:41:31.021Z,3.05
2019-02-09T11:42:40.942Z,3
2019-02-09T11:43:50.869Z,3.01
2019-02-09T11:45:01.174Z,2.95
2019-02-09T11:46:11.102Z,2.9
2019-02-09T11:47:21.075Z,3
2019-02-09T11:48:30.994Z,2.98
2019-02-09T11:49:40.931Z,2.91
2019-02-09T11:50:50.861Z,2.9
2019-02-09T11:52:00.785Z,2.77
2019-02-09T11:53:10.762Z,2.83
2019-02-09T11:54:20.832Z,2.9
2019-02-09T11:55:30.799Z,2.88
2019-02-09T11:56:41.206Z,2.97
2019-02-09T11:57:51.518Z,3.05
2019-02-09T11:59:01.442Z,3.05
2019-02-09T12:00:11.366Z,3.08
2019-02-09T12:01:21.449Z,2.98
2019-02-09T12:02:31.373Z,3.06
2019-02-09T12:03:41.346Z,3.09
2019-02-09T12:04:51.409Z,3.12
2019-02-09T12:06:01.370Z,3.15
2019-02-09T12:07:11.290Z,3.18
2019-02-09T12:08:21.220Z,3.29
2019-02-09T12:09:31.141Z,3.37
2019-02-09T12:10:41.073Z,3.46
2019-02-09T12:11:51.001Z,3.5
2019-02-09T12:13:00.926Z,3.61
2019-02-09T12:14:10.852Z,3.71
2019-02-09T12:15:20.784Z,3.73
2019-02-09T12:16:30.759Z,3.78
2019-02-09T12:17:40.679Z,3.81
2019-02-09T12:18:50.602Z,3.92
2019-02-09T12:20:00.522Z,3.99
2019-02-09T12:21:10.500Z,3.99
2019-02-09T12:22:20.479Z,4.04
2019-02-09T12:23:30.409Z,4.06
2019-02-09T12:24:40.328Z,4.13
2019-02-09T12:25:50.250Z,4.27
2019-02-09T12:27:00.195Z,4.43
2019-02-09T12:28:10.173Z,4.53
2019-02-09T12:29:20.098Z,4.52
2019-02-09T12:30:30.016Z,4.42
2019-02-09T12:31:39.953Z,4.34
2019-02-09T12:32:49.900Z,4.24
2019-02-09T12:33:59.921Z,3.94
2019-02-09T12:35:09.843Z,3.78
2019-02-09T12:36:19.764Z,3.71
2019-02-09T12:37:29.708Z,3.55
2019-02-09T12:38:39.664Z,3.55
2019-02-09T12:39:49.741Z,3.46
2019-02-09T12:40:59.421Z,3.4
2019-02-09T12:42:09.344Z,3.46
2019-02-09T12:43:19.082Z,3.45
2019-02-09T12:44:29.031Z,3.56
2019-02-09T12:45:39.020Z,3.61
2019-02-09T12:46:48.940Z,3.64
2019-02-09T12:47:58.867Z,3.73
2019-02-09T12:49:08.791Z,3.77
2019-02-09T12:50:18.711Z,3.85
2019-02-09T12:51:28.486Z,3.96
2019-02-09T12:52:38.408Z,4.03
2019-02-09T12:53:48.335Z,4.12
2019-02-09T12:54:58.258Z,4.22
2019-02-09T12:56:08.185Z,4.31
2019-02-09T12:57:18.260Z,4.27
2019-02-09T12:58:28.181Z,4.28
2019-02-09T12:59:38.112Z,4.3
2019-02-09T13:00:48.038Z,4.38
2019-02-09T13:01:57.969Z,4.3
2019-02-09T13:03:07.940Z,4.43
2019-02-09T13:04:17.862Z,4.46
2019-02-09T13:05:27.787Z,4.53
2019-02-09T13:06:37.718Z,4.48
2019-02-09T13:07:48.456Z,4.58
2019-02-09T13:08:58.479Z,4.67
2019-02-09T13:10:08.409Z,4.68
2019-02-09T13:11:18.328Z,4.76
2019-02-09T13:12:28.254Z,4.75
2019-02-09T13:13:38.177Z,4.84
2019-02-09T13:14:48.197Z,4.83
2019-02-09T13:15:58.158Z,4.79
2019-02-09T13:17:08.098Z,4.76
2019-02-09T13:18:18.022Z,4.79
2019-02-09T13:19:27.940Z,4.78
2019-02-09T13:20:37.964Z,4.74
2019-02-09T13:21:47.885Z,4.76
2019-02-09T13:22:57.819Z,4.74
2019-02-09T13:24:07.747Z,4.7
2019-02-09T13:25:17.666Z,4.82
2019-02-09T13:26:27.684Z,4.79
2019-02-09T13:27:37.602Z,4.75
2019-02-09T13:28:47.532Z,4.78
2019-02-09T13:29:57.457Z,4.76
2019-02-09T13:31:07.385Z,4.71
2019-02-09T13:32:17.353Z,4.76
2019-02-09T13:33:27.272Z,4.75
2019-02-09T13:34:44.074Z,4.86
2019-02-09T13:35:54.007Z,4.83
2019-02-09T13:37:03.940Z,4.79
2019-02-09T13:38:14.013Z,4.75
2019-02-09T13:39:23.947Z,4.76
2019-02-09T13:40:33.879Z,4.63
2019-02-09T13:41:43.813Z,4.61
2019-02-09T13:42:53.733Z,4.58
2019-02-09T13:44:03.757Z,4.74
2019-02-09T13:45:13.690Z,4.84
2019-02-09T13:46:23.620Z,5.01
2019-02-09T13:47:33.290Z,5.07
2019-02-09T13:48:43.213Z,5.05
2019-02-09T13:49:53.246Z,4.94
2019-02-09T13:51:03.169Z,4.78
2019-02-09T13:52:12.844Z,4.68
2019-02-09T13:53:22.767Z,4.56
2019-02-09T13:54:32.688Z,4.52
2019-02-09T13:55:42.719Z,4.39
2019-02-09T13:56:52.904Z,4.45
2019-02-09T13:58:02.826Z,4.42
2019-02-09T13:59:12.772Z,4.36
2019-02-09T14:00:22.692Z,4.1
2019-02-09T14:01:32.721Z,3.82
2019-02-09T14:02:42.636Z,3.58
2019-02-09T14:03:52.569Z,3.3
2019-02-09T14:05:02.576Z,3.18
2019-02-09T14:06:13.306Z,3.06
2019-02-09T14:07:23.237Z,2.97
2019-02-09T14:08:33.154Z,2.88
2019-02-09T14:09:43.076Z,2.8
2019-02-09T14:10:53.192Z,2.9
2019-02-09T14:12:03.128Z,2.82
2019-02-09T14:13:19.387Z,2.77
2019-02-09T14:14:29.312Z,2.82
2019-02-09T14:15:39.230Z,2.79
2019-02-09T14:16:49.158Z,2.87
2019-02-09T14:17:59.089Z,2.9
2019-02-09T14:19:09.131Z,2.83
2019-02-09T14:20:19.051Z,2.85
2019-02-09T14:21:29.021Z,2.88
2019-02-09T14:22:38.946Z,2.87
2019-02-09T14:23:48.875Z,2.83
2019-02-09T14:24:58.858Z,2.91
2019-02-09T14:26:08.777Z,2.97
2019-02-09T14:27:18.734Z,2.93
2019-02-09T14:28:28.659Z,3.01
2019-02-09T14:29:38.590Z,2.98
2019-02-09T14:30:48.627Z,3.06
2019-02-09T14:31:59.810Z,3.21
2019-02-09T14:33:09.763Z,3.16
2019-02-09T14:34:19.682Z,3.22
2019-02-09T14:35:30.052Z,3.16
2019-02-09T14:36:40.055Z,3.24
2019-02-09T14:37:49.976Z,3.13
2019-02-09T14:38:59.894Z,3.27
2019-02-09T14:40:09.813Z,3.21
2019-02-09T14:41:19.737Z,3.27
2019-02-09T14:42:30.616Z,3.27
2019-02-09T14:43:40.538Z,3.41
2019-02-09T14:44:50.461Z,3.36
2019-02-09T14:46:00.405Z,3.37
2019-02-09T14:47:10.329Z,3.43
2019-02-09T14:48:20.348Z,3.33
2019-02-09T14:49:30.016Z,3.24
2019-02-09T14:50:39.937Z,3.21
2019-02-09T14:51:49.860Z,3.09
2019-02-09T14:52:59.783Z,3
2019-02-09T14:54:09.761Z,2.97
2019-02-09T14:55:19.685Z,2.98
2019-02-09T14:56:29.610Z,3.06
2019-02-09T14:57:39.534Z,2.98
2019-02-09T14:58:49.456Z,3
2019-02-09T14:59:59.432Z,2.98
2019-02-09T15:01:09.352Z,3.06
2019-02-09T15:02:19.278Z,3
2019-02-09T15:03:33.689Z,3.05
2019-02-09T15:04:43.608Z,3.09
2019-02-09T15:05:53.629Z,3.08
2019-02-09T15:07:03.553Z,3.09
2019-02-09T15:08:13.225Z,3.01
2019-02-09T15:09:23.158Z,3.05
2019-02-09T15:10:33.115Z,2.97
2019-02-09T15:11:43.089Z,2.94
2019-02-09T15:12:53.047Z,2.9
2019-02-09T15:14:03.006Z,2.97
2019-02-09T15:15:12.926Z,3.01
2019-02-09T15:16:22.848Z,3.01
2019-02-09T15:17:32.874Z,2.91
2019-02-09T15:18:42.788Z,2.95
2019-02-09T15:19:52.724Z,2.88
2019-02-09T15:21:02.648Z,2.91
2019-02-09T15:22:12.570Z,2.95
2019-02-09T15:23:22.488Z,2.85